Houstonia, Missouri
Current Conditions -  °F | °C
As of 11:58 AM on Saturday 25 Oct 2014 (Local Time) from KSZL Reporting Station
Haze Haze  
Wind Chill: 67°   Ceiling: Unl
Heat Index: 67°   Visibility: 6mi
Dew Point: 63°   Wind: 5mph
Humidity: 87%   Direction: 20°NNE
Pressure: 30.09"   Gusts: NA
Location:  38.9°N, 93.36°W
Report Text: KSZL 251658Z 02004KT 6SM HZ FEW005 20/17 A3009 RMK AO2A SLP188 T01950173 $
Loading
Personal Weather Stations






























Interactive Weather Map
Tropical Storm Tracking
New forecast layout! Learn more

10-Day Weather Forecast

Advertisements
Track Severe Weather on mobile